createdAt,value
2017-07-05T00:00:01.006Z,17.80
2017-07-05T00:02:29.309Z,17.80
2017-07-05T00:04:57.789Z,17.80
2017-07-05T00:07:26.075Z,17.70
2017-07-05T00:09:54.426Z,17.70
2017-07-05T00:12:23.492Z,17.60
2017-07-05T00:14:51.816Z,17.50
2017-07-05T00:17:20.292Z,17.50
2017-07-05T00:19:49.582Z,17.50
2017-07-05T00:22:18.042Z,17.40
2017-07-05T00:24:47.166Z,17.40
2017-07-05T00:27:16.279Z,17.40
2017-07-05T00:29:44.631Z,17.30
2017-07-05T00:32:13.827Z,17.40
2017-07-05T00:34:42.889Z,17.40
2017-07-05T00:37:11.210Z,17.40
2017-07-05T00:39:39.516Z,17.30
2017-07-05T00:42:08.069Z,17.30
2017-07-05T00:44:36.367Z,17.30
2017-07-05T00:47:04.860Z,17.30
2017-07-05T00:49:33.405Z,17.30
2017-07-05T00:52:01.722Z,17.30
2017-07-05T00:54:30.976Z,17.30
2017-07-05T00:57:00.046Z,17.40
2017-07-05T00:59:29.159Z,17.30
2017-07-05T01:01:57.444Z,17.30
2017-07-05T01:04:25.767Z,17.30
2017-07-05T01:06:54.315Z,17.30
2017-07-05T01:09:22.784Z,17.40
2017-07-05T01:11:51.095Z,17.40
2017-07-05T01:14:19.534Z,17.40
2017-07-05T01:16:47.909Z,17.30
2017-07-05T01:19:17.016Z,17.30
2017-07-05T01:21:46.105Z,17.30
2017-07-05T01:24:15.160Z,17.30
2017-07-05T01:26:43.676Z,17.30
2017-07-05T01:29:12.779Z,17.30
2017-07-05T01:31:41.251Z,17.30
2017-07-05T01:34:09.645Z,17.40
2017-07-05T01:36:37.997Z,17.40
2017-07-05T01:39:07.095Z,17.40
2017-07-05T01:41:35.431Z,17.40
2017-07-05T01:44:03.779Z,17.40
2017-07-05T01:46:32.070Z,17.40
2017-07-05T01:49:00.401Z,17.40
2017-07-05T01:51:29.476Z,17.40
2017-07-05T01:53:58.709Z,17.40
2017-07-05T01:56:27.175Z,17.40
2017-07-05T01:58:56.268Z,17.40
2017-07-05T02:01:25.376Z,17.50
2017-07-05T02:03:53.695Z,17.40
2017-07-05T02:06:22.013Z,17.50
2017-07-05T02:08:51.092Z,17.50
2017-07-05T02:11:19.426Z,17.40
2017-07-05T02:13:47.727Z,17.50
2017-07-05T02:16:16.154Z,17.50
2017-07-05T02:18:44.529Z,17.50
2017-07-05T02:21:13.600Z,17.50
2017-07-05T02:23:41.915Z,17.50
2017-07-05T02:26:10.267Z,17.60
2017-07-05T02:28:39.365Z,17.40
2017-07-05T02:31:08.460Z,17.30
2017-07-05T02:33:37.576Z,17.30
2017-07-05T02:36:06.623Z,17.30
2017-07-05T02:38:35.237Z,17.30
2017-07-05T02:41:03.716Z,17.30
2017-07-05T02:43:32.890Z,17.30
2017-07-05T02:46:01.293Z,17.20
2017-07-05T02:48:30.354Z,17.30
2017-07-05T02:50:58.772Z,17.20
2017-07-05T02:53:27.834Z,17.30
2017-07-05T02:55:56.332Z,17.30
2017-07-05T02:58:25.429Z,17.30
2017-07-05T03:00:54.495Z,17.30
2017-07-05T03:03:22.819Z,17.20
2017-07-05T03:05:51.185Z,17.30
2017-07-05T03:08:20.275Z,17.30
2017-07-05T03:10:48.755Z,17.30
2017-07-05T03:13:17.857Z,17.30
2017-07-05T03:15:46.915Z,17.30
2017-07-05T03:18:15.228Z,17.30
2017-07-05T03:20:44.315Z,17.30
2017-07-05T03:23:12.799Z,17.30
2017-07-05T03:25:41.279Z,17.30
2017-07-05T03:28:10.376Z,17.30
2017-07-05T03:30:38.715Z,17.30
2017-07-05T03:33:07.035Z,17.30
2017-07-05T03:35:36.107Z,17.30
2017-07-05T03:38:05.178Z,17.30
2017-07-05T03:40:33.696Z,17.30
2017-07-05T03:43:02.762Z,17.10
2017-07-05T03:45:31.165Z,17.10
2017-07-05T03:48:00.373Z,17.00
2017-07-05T03:50:29.803Z,16.80
2017-07-05T03:52:58.111Z,16.80
2017-07-05T03:55:26.421Z,16.70
2017-07-05T03:57:55.515Z,16.20
2017-07-05T04:00:23.895Z,16.20
2017-07-05T04:02:53.195Z,15.90
2017-07-05T04:05:22.380Z,15.80
2017-07-05T04:07:51.496Z,15.60
2017-07-05T04:10:20.681Z,15.50
2017-07-05T04:12:49.750Z,15.50
2017-07-05T04:15:18.084Z,15.40
2017-07-05T04:17:46.431Z,15.40
2017-07-05T04:20:15.516Z,15.30
2017-07-05T04:22:43.903Z,15.30
2017-07-05T04:25:12.380Z,15.30
2017-07-05T04:27:40.859Z,15.40
2017-07-05T04:30:09.812Z,15.50
2017-07-05T04:32:38.135Z,15.60
2017-07-05T04:35:07.186Z,15.70
2017-07-05T04:37:35.496Z,15.60
2017-07-05T04:40:03.787Z,15.70
2017-07-05T04:42:32.160Z,15.80
2017-07-05T04:45:00.648Z,15.90
2017-07-05T04:47:29.731Z,16.00
2017-07-05T04:49:58.793Z,16.00
2017-07-05T04:52:27.316Z,15.90
2017-07-05T04:54:55.589Z,16.00
2017-07-05T04:57:23.964Z,16.00
2017-07-05T04:59:53.051Z,16.10
2017-07-05T05:02:21.431Z,16.00
2017-07-05T05:04:49.758Z,16.10
2017-07-05T05:07:18.072Z,16.10
2017-07-05T05:09:46.671Z,16.10
2017-07-05T05:12:16.064Z,16.20
2017-07-05T05:14:45.174Z,16.30
2017-07-05T05:17:13.543Z,16.20
2017-07-05T05:19:41.920Z,16.40
2017-07-05T05:22:10.310Z,16.40
2017-07-05T05:24:39.086Z,16.40
2017-07-05T05:27:07.464Z,16.40
2017-07-05T05:29:35.907Z,16.50
2017-07-05T05:32:04.431Z,16.60
2017-07-05T05:34:33.520Z,16.70
2017-07-05T05:37:02.883Z,16.90
2017-07-05T05:39:31.197Z,16.90
2017-07-05T05:42:00.274Z,17.10
2017-07-05T05:44:28.657Z,17.00
2017-07-05T05:46:56.933Z,17.10
2017-07-05T05:49:25.342Z,17.10
2017-07-05T05:51:54.686Z,17.20
2017-07-05T05:54:23.101Z,17.20
2017-07-05T05:56:52.185Z,17.40
2017-07-05T05:59:20.577Z,17.40
2017-07-05T06:01:49.657Z,17.10
2017-07-05T06:04:18.050Z,17.00
2017-07-05T06:06:47.146Z,17.10
2017-07-05T06:09:16.238Z,17.00
2017-07-05T06:11:45.484Z,17.10
2017-07-05T06:14:13.815Z,17.00
2017-07-05T06:16:42.390Z,17.10
2017-07-05T06:19:11.475Z,17.20
2017-07-05T06:21:40.571Z,17.10
2017-07-05T06:24:08.966Z,17.20
2017-07-05T06:26:38.072Z,17.40
2017-07-05T06:29:07.155Z,17.30
2017-07-05T06:31:36.229Z,17.40
2017-07-05T06:34:04.887Z,17.30
2017-07-05T06:36:33.185Z,17.40
2017-07-05T06:39:01.589Z,17.50
2017-07-05T06:41:30.693Z,17.60
2017-07-05T06:43:59.780Z,17.70
2017-07-05T06:46:28.872Z,17.70
2017-07-05T06:48:57.251Z,17.70
2017-07-05T06:51:25.732Z,17.80
2017-07-05T06:53:54.144Z,17.90
2017-07-05T06:56:22.437Z,18.00
2017-07-05T06:58:51.063Z,18.10
2017-07-05T07:01:19.376Z,18.10
2017-07-05T07:03:47.708Z,18.20
2017-07-05T07:06:16.795Z,18.20
2017-07-05T07:08:46.119Z,18.20
2017-07-05T07:11:14.415Z,18.10
2017-07-05T07:13:42.772Z,18.10
2017-07-05T07:16:11.167Z,18.10
2017-07-05T07:18:39.484Z,18.10
2017-07-05T07:21:07.818Z,18.10
2017-07-05T07:23:36.234Z,18.00
2017-07-05T07:26:05.274Z,17.80
2017-07-05T07:28:34.471Z,17.40
2017-07-05T07:31:03.571Z,17.10
2017-07-05T07:33:32.675Z,16.90
2017-07-05T07:36:00.992Z,16.80
2017-07-05T07:38:29.325Z,16.90
2017-07-05T07:40:58.382Z,16.80
2017-07-05T07:43:26.714Z,16.80
2017-07-05T07:45:55.005Z,16.80
2017-07-05T07:48:23.554Z,16.80
2017-07-05T07:50:52.618Z,16.70
2017-07-05T07:53:20.927Z,16.70
2017-07-05T07:55:49.310Z,16.60
2017-07-05T07:58:17.780Z,16.60
2017-07-05T08:00:46.862Z,16.70
2017-07-05T08:03:15.255Z,16.70
2017-07-05T08:05:43.837Z,16.80
2017-07-05T08:08:12.903Z,17.00
2017-07-05T08:10:41.199Z,16.90
2017-07-05T08:13:10.302Z,17.20
2017-07-05T08:15:38.626Z,17.10
2017-07-05T08:18:06.963Z,17.30
2017-07-05T08:20:35.278Z,17.30
2017-07-05T08:23:03.812Z,17.40
2017-07-05T08:25:32.143Z,17.70
2017-07-05T08:28:00.504Z,17.90
2017-07-05T08:30:28.847Z,18.20
2017-07-05T08:32:57.437Z,18.50
2017-07-05T08:35:26.490Z,19.20
2017-07-05T08:37:54.798Z,19.10
2017-07-05T08:40:23.890Z,19.90
2017-07-05T08:42:52.214Z,19.90
2017-07-05T08:45:20.546Z,20.30
2017-07-05T08:47:48.879Z,20.60
2017-07-05T08:50:17.211Z,20.90
2017-07-05T08:52:46.275Z,21.50
2017-07-05T08:55:14.657Z,21.50
2017-07-05T08:57:43.744Z,22.00
2017-07-05T09:00:12.088Z,22.00
2017-07-05T09:02:40.405Z,22.20
2017-07-05T09:05:09.842Z,22.70
2017-07-05T09:07:38.293Z,22.60
2017-07-05T09:10:07.371Z,23.30
2017-07-05T09:12:35.706Z,23.20
2017-07-05T09:15:04.016Z,23.40
2017-07-05T09:17:32.424Z,23.70
2017-07-05T09:20:01.527Z,23.80
2017-07-05T09:22:30.619Z,23.80
2017-07-05T09:24:58.999Z,23.70
2017-07-05T09:27:27.880Z,24.10
2017-07-05T09:29:56.171Z,24.30
2017-07-05T09:32:24.479Z,24.30
2017-07-05T09:34:52.812Z,24.20
2017-07-05T09:37:21.925Z,24.00
2017-07-05T09:39:51.008Z,23.80
2017-07-05T09:42:19.390Z,23.70
2017-07-05T09:44:48.479Z,23.50
2017-07-05T09:47:17.568Z,23.60
2017-07-05T09:49:46.160Z,23.50
2017-07-05T09:52:15.214Z,23.30
2017-07-05T09:54:43.540Z,23.20
2017-07-05T09:57:11.907Z,23.40
2017-07-05T09:59:41.067Z,23.10
2017-07-05T10:02:09.406Z,23.10
2017-07-05T10:04:37.726Z,22.80
2017-07-05T10:07:06.059Z,22.80
2017-07-05T10:09:34.387Z,22.80
2017-07-05T10:12:02.706Z,22.80
2017-07-05T10:14:31.063Z,22.90
2017-07-05T10:16:59.515Z,23.00
2017-07-05T10:19:28.645Z,23.60
2017-07-05T10:21:56.942Z,23.60
2017-07-05T10:24:25.292Z,23.80
2017-07-05T10:26:53.609Z,24.10
2017-07-05T10:29:21.940Z,24.40
2017-07-05T10:31:50.301Z,24.50
2017-07-05T10:34:19.387Z,25.10
2017-07-05T10:36:47.727Z,25.00
2017-07-05T10:39:16.040Z,25.30
2017-07-05T10:41:45.267Z,25.70
2017-07-05T10:44:13.584Z,25.70
2017-07-05T10:46:41.936Z,25.80
2017-07-05T10:49:10.259Z,25.70
2017-07-05T10:51:38.676Z,25.70
2017-07-05T10:54:07.017Z,26.00
2017-07-05T10:56:35.325Z,25.80
2017-07-05T10:59:04.529Z,26.10
2017-07-05T11:01:32.836Z,26.00
2017-07-05T11:04:01.879Z,25.80
2017-07-05T11:06:30.965Z,25.20
2017-07-05T11:08:59.367Z,25.20
2017-07-05T11:11:28.569Z,23.80
2017-07-05T11:13:56.887Z,23.80
2017-07-05T11:16:25.196Z,23.90
2017-07-05T11:18:54.293Z,23.60
2017-07-05T11:21:22.688Z,23.50
2017-07-05T11:23:51.751Z,23.70
2017-07-05T11:26:20.267Z,23.60
2017-07-05T11:28:49.321Z,23.50
2017-07-05T11:31:17.643Z,23.40
2017-07-05T11:33:46.831Z,23.40
2017-07-05T11:36:15.329Z,23.40
2017-07-05T11:38:44.471Z,23.50
2017-07-05T11:41:13.608Z,23.70
2017-07-05T11:43:43.120Z,23.90
2017-07-05T11:46:11.495Z,23.90
2017-07-05T11:48:39.811Z,23.80
2017-07-05T11:51:08.152Z,23.70
2017-07-05T11:53:36.630Z,24.30
2017-07-05T11:56:04.999Z,24.80
2017-07-05T11:58:34.103Z,25.30
2017-07-05T12:01:02.439Z,25.20
2017-07-05T12:03:30.752Z,25.40
2017-07-05T12:05:59.132Z,25.60
2017-07-05T12:08:27.507Z,25.60
2017-07-05T12:10:56.799Z,25.00
2017-07-05T12:13:25.087Z,24.90
2017-07-05T12:15:53.464Z,25.00
2017-07-05T12:18:22.543Z,25.60
2017-07-05T12:20:51.629Z,26.00
2017-07-05T12:23:20.023Z,25.90
2017-07-05T12:25:49.844Z,26.60
2017-07-05T12:28:19.033Z,26.90
2017-07-05T12:30:48.130Z,27.10
2017-07-05T12:33:16.564Z,27.00
2017-07-05T12:35:44.888Z,26.50
2017-07-05T12:38:13.372Z,26.00
2017-07-05T12:40:41.854Z,25.60
2017-07-05T12:43:10.169Z,25.50
2017-07-05T12:45:38.523Z,25.70
2017-07-05T12:48:06.880Z,25.70
2017-07-05T12:50:36.908Z,26.50
2017-07-05T12:53:05.991Z,26.30
2017-07-05T12:55:34.488Z,26.30
2017-07-05T12:58:02.857Z,25.80
2017-07-05T13:00:31.156Z,25.50
2017-07-05T13:02:59.519Z,25.40
2017-07-05T13:05:27.817Z,25.80
2017-07-05T13:07:56.185Z,25.90
2017-07-05T13:10:24.485Z,25.60
2017-07-05T13:12:53.176Z,25.40
2017-07-05T13:15:21.642Z,25.00
2017-07-05T13:17:50.823Z,25.10
2017-07-05T13:20:20.012Z,25.60
2017-07-05T13:22:48.325Z,25.60
2017-07-05T13:25:16.683Z,25.60
2017-07-05T13:27:45.060Z,25.50
2017-07-05T13:30:13.404Z,25.70
2017-07-05T13:32:41.720Z,25.60
2017-07-05T13:35:10.180Z,25.40
2017-07-05T13:37:38.525Z,25.70
2017-07-05T13:40:07.632Z,25.60
2017-07-05T13:42:36.013Z,25.50
2017-07-05T13:45:05.105Z,26.00
2017-07-05T13:47:34.275Z,26.00
2017-07-05T13:50:02.591Z,26.00
2017-07-05T13:52:30.919Z,25.90
2017-07-05T13:54:59.331Z,25.90
2017-07-05T13:57:28.833Z,25.90
2017-07-05T13:59:57.164Z,25.80
2017-07-05T14:02:25.496Z,25.60
2017-07-05T14:04:53.826Z,25.70
2017-07-05T14:07:22.145Z,25.90
2017-07-05T14:09:51.247Z,26.40
2017-07-05T14:12:19.561Z,26.40
2017-07-05T14:14:48.092Z,26.90
2017-07-05T14:17:17.166Z,27.10
2017-07-05T14:19:45.450Z,27.10
2017-07-05T14:22:13.796Z,26.80
2017-07-05T14:24:42.107Z,27.10
2017-07-05T14:27:10.503Z,27.40
2017-07-05T14:29:39.700Z,26.90
2017-07-05T14:32:08.091Z,26.80
2017-07-05T14:34:36.558Z,26.50
2017-07-05T14:37:04.915Z,26.10
2017-07-05T14:39:33.987Z,25.40
2017-07-05T14:42:02.503Z,25.30
2017-07-05T14:44:31.508Z,25.20
2017-07-05T14:47:00.580Z,25.40
2017-07-05T14:49:29.786Z,25.30
2017-07-05T14:51:59.283Z,25.10
2017-07-05T14:54:28.488Z,25.10
2017-07-05T14:56:57.779Z,24.70
2017-07-05T14:59:27.088Z,24.70
2017-07-05T15:01:56.170Z,24.90
2017-07-05T15:04:24.458Z,24.90
2017-07-05T15:06:53.552Z,24.80
2017-07-05T15:09:23.230Z,24.60
2017-07-05T15:11:51.639Z,24.60
2017-07-05T15:14:19.967Z,25.00
2017-07-05T15:16:48.391Z,25.90
2017-07-05T15:19:16.835Z,26.80
2017-07-05T15:21:45.385Z,27.80
2017-07-05T15:24:13.837Z,28.60
2017-07-05T15:26:42.960Z,28.70
2017-07-05T15:29:11.295Z,28.60
2017-07-05T15:31:39.603Z,28.10
2017-07-05T15:34:07.956Z,27.60
2017-07-05T15:36:37.046Z,29.60
2017-07-05T15:39:05.434Z,29.60
2017-07-05T15:41:34.539Z,30.00
2017-07-05T15:44:02.923Z,30.00
2017-07-05T15:46:31.235Z,30.00
2017-07-05T15:48:59.767Z,30.00
2017-07-05T15:51:28.099Z,29.30
2017-07-05T15:53:56.575Z,29.00
2017-07-05T15:56:27.756Z,28.70
2017-07-05T15:58:56.839Z,30.10
2017-07-05T16:01:25.145Z,30.10
2017-07-05T16:03:54.224Z,31.00
2017-07-05T16:06:23.352Z,31.00
2017-07-05T16:08:51.972Z,30.90
2017-07-05T16:11:20.464Z,31.00
2017-07-05T16:13:48.761Z,30.60
2017-07-05T16:16:17.524Z,30.70
2017-07-05T16:18:45.888Z,30.60
2017-07-05T16:21:14.221Z,30.00
2017-07-05T16:23:43.416Z,30.30
2017-07-05T16:26:12.491Z,30.30
2017-07-05T16:28:40.881Z,30.20
2017-07-05T16:31:10.708Z,30.60
2017-07-05T16:33:39.384Z,30.60
2017-07-05T16:36:07.763Z,31.40
2017-07-05T16:38:36.071Z,31.60
2017-07-05T16:41:04.400Z,30.80
2017-07-05T16:43:33.511Z,30.10
2017-07-05T16:46:01.848Z,30.10
2017-07-05T16:48:30.156Z,30.20
2017-07-05T16:50:59.665Z,31.40
2017-07-05T16:53:27.995Z,31.30
2017-07-05T16:55:56.323Z,31.90
2017-07-05T16:58:24.783Z,32.40
2017-07-05T17:00:53.896Z,33.10
2017-07-05T17:03:22.385Z,33.00
2017-07-05T17:05:50.755Z,32.90
2017-07-05T17:08:19.441Z,33.10
2017-07-05T17:10:47.823Z,33.20
2017-07-05T17:13:16.133Z,33.20
2017-07-05T17:15:44.490Z,33.50
2017-07-05T17:18:12.787Z,34.00
2017-07-05T17:20:42.456Z,35.40
2017-07-05T17:23:11.547Z,35.60
2017-07-05T17:25:40.643Z,35.70
2017-07-05T17:28:09.944Z,35.70
2017-07-05T17:30:38.266Z,35.60
2017-07-05T17:33:06.775Z,35.20
2017-07-05T17:35:35.084Z,34.90
2017-07-05T17:38:03.450Z,34.70
2017-07-05T17:40:33.207Z,33.30
2017-07-05T17:43:01.747Z,33.20
2017-07-05T17:45:30.147Z,32.40
2017-07-05T17:47:58.590Z,31.00
2017-07-05T17:50:27.674Z,29.30
2017-07-05T17:52:55.982Z,29.20
2017-07-05T17:55:24.331Z,28.70
2017-07-05T17:57:52.736Z,28.30
2017-07-05T18:00:21.114Z,28.00
2017-07-05T18:02:49.426Z,27.80
2017-07-05T18:05:18.067Z,27.40
2017-07-05T18:07:46.391Z,27.20
2017-07-05T18:10:14.740Z,26.90
2017-07-05T18:12:43.312Z,26.50
2017-07-05T18:15:11.638Z,26.10
2017-07-05T18:17:39.967Z,25.80
2017-07-05T18:20:08.300Z,25.60
2017-07-05T18:22:36.624Z,25.20
2017-07-05T18:25:05.712Z,24.90
2017-07-05T18:27:34.420Z,24.80
2017-07-05T18:30:02.777Z,24.70
2017-07-05T18:32:31.848Z,24.20
2017-07-05T18:35:00.181Z,24.20
2017-07-05T18:37:28.629Z,24.00
2017-07-05T18:39:57.708Z,23.80
2017-07-05T18:42:26.156Z,23.70
2017-07-05T18:44:55.223Z,23.70
2017-07-05T18:47:23.551Z,23.70
2017-07-05T18:49:52.840Z,23.70
2017-07-05T18:52:21.346Z,23.60
2017-07-05T18:54:50.438Z,23.40
2017-07-05T18:57:19.518Z,23.30
2017-07-05T18:59:48.005Z,23.20
2017-07-05T19:02:16.297Z,23.10
2017-07-05T19:04:45.351Z,22.90
2017-07-05T19:07:13.663Z,22.80
2017-07-05T19:09:41.973Z,22.70
2017-07-05T19:12:10.323Z,22.60
2017-07-05T19:14:39.377Z,22.50
2017-07-05T19:17:08.003Z,22.40
2017-07-05T19:19:36.301Z,22.40
2017-07-05T19:22:04.652Z,22.20
2017-07-05T19:24:33.006Z,22.10
2017-07-05T19:27:01.324Z,21.90
2017-07-05T19:29:29.691Z,21.70
2017-07-05T19:31:58.747Z,21.50
2017-07-05T19:34:27.968Z,21.40
2017-07-05T19:36:56.305Z,21.40
2017-07-05T19:39:24.983Z,21.40
2017-07-05T19:41:53.317Z,21.30
2017-07-05T19:44:21.664Z,21.10
2017-07-05T19:46:49.980Z,21.10
2017-07-05T19:49:18.289Z,21.10
2017-07-05T19:51:46.606Z,20.90
2017-07-05T19:54:15.683Z,20.80
2017-07-05T19:56:44.108Z,20.70
2017-07-05T19:59:12.423Z,20.70
2017-07-05T20:01:40.714Z,20.60
2017-07-05T20:04:09.043Z,20.50
2017-07-05T20:06:37.351Z,20.50
2017-07-05T20:09:05.692Z,20.40
2017-07-05T20:11:34.000Z,20.30
2017-07-05T20:14:02.434Z,20.20
2017-07-05T20:16:30.747Z,20.20
2017-07-05T20:18:59.079Z,20.10
2017-07-05T20:21:27.412Z,20.00
2017-07-05T20:23:55.720Z,20.00
2017-07-05T20:26:24.022Z,20.00
2017-07-05T20:28:52.366Z,19.90
2017-07-05T20:31:20.682Z,19.90
2017-07-05T20:33:48.991Z,19.80
2017-07-05T20:36:17.421Z,19.80
2017-07-05T20:38:46.491Z,19.70
2017-07-05T20:41:14.798Z,19.60
2017-07-05T20:43:43.172Z,19.60
2017-07-05T20:46:12.232Z,19.50
2017-07-05T20:48:40.670Z,19.50
2017-07-05T20:51:08.960Z,19.50
2017-07-05T20:53:37.400Z,19.50
2017-07-05T20:56:06.493Z,19.40
2017-07-05T20:58:35.555Z,19.30
2017-07-05T21:01:03.971Z,19.30
2017-07-05T21:03:33.051Z,19.30
2017-07-05T21:06:01.439Z,19.20
2017-07-05T21:08:30.542Z,19.30
2017-07-05T21:10:58.918Z,19.20
2017-07-05T21:13:28.012Z,19.20
2017-07-05T21:15:57.199Z,19.20
2017-07-05T21:18:26.270Z,19.10
2017-07-05T21:20:54.587Z,19.10
2017-07-05T21:23:22.895Z,19.10
2017-07-05T21:25:51.438Z,19.10
2017-07-05T21:28:19.836Z,19.10
2017-07-05T21:30:48.189Z,19.10
2017-07-05T21:33:17.287Z,19.10
2017-07-05T21:35:46.367Z,19.10
2017-07-05T21:38:14.666Z,19.10
2017-07-05T21:40:43.031Z,19.20
2017-07-05T21:43:12.334Z,19.30
2017-07-05T21:45:41.437Z,19.40
2017-07-05T21:48:09.805Z,19.30
2017-07-05T21:50:39.715Z,19.40
2017-07-05T21:53:08.796Z,19.50
2017-07-05T21:55:37.388Z,19.40
2017-07-05T21:58:06.448Z,19.50
2017-07-05T22:00:34.752Z,19.50
2017-07-05T22:03:03.862Z,19.60
2017-07-05T22:05:32.924Z,19.60
2017-07-05T22:08:01.266Z,19.50
2017-07-05T22:10:29.568Z,19.60
2017-07-05T22:12:57.987Z,19.50
2017-07-05T22:15:26.308Z,19.40
2017-07-05T22:17:54.641Z,19.30
2017-07-05T22:20:23.044Z,19.20
2017-07-05T22:22:51.602Z,19.20
2017-07-05T22:25:19.907Z,19.00
2017-07-05T22:27:48.211Z,19.00
2017-07-05T22:30:16.547Z,18.90
2017-07-05T22:32:45.010Z,18.80
2017-07-05T22:35:13.356Z,18.80
2017-07-05T22:37:41.770Z,18.80
2017-07-05T22:40:10.108Z,18.70
2017-07-05T22:42:38.527Z,18.70
2017-07-05T22:45:08.027Z,18.70
2017-07-05T22:47:36.323Z,18.60
2017-07-05T22:50:04.681Z,18.70
2017-07-05T22:52:33.766Z,18.60
2017-07-05T22:55:02.155Z,18.60
2017-07-05T22:57:31.231Z,18.60
2017-07-05T23:00:00.342Z,18.50
2017-07-05T23:02:29.448Z,18.50
2017-07-05T23:04:58.615Z,18.40
2017-07-05T23:07:27.719Z,18.40
2017-07-05T23:09:56.803Z,18.40
2017-07-05T23:12:25.127Z,18.30
2017-07-05T23:14:53.421Z,18.30
2017-07-05T23:17:22.160Z,18.30
2017-07-05T23:19:50.448Z,18.20
2017-07-05T23:22:18.814Z,18.30
2017-07-05T23:24:47.908Z,18.30
2017-07-05T23:27:16.972Z,18.40
2017-07-05T23:29:45.386Z,18.30
2017-07-05T23:32:14.494Z,18.40
2017-07-05T23:34:42.819Z,18.40
2017-07-05T23:37:11.130Z,18.50
2017-07-05T23:39:39.613Z,18.50
2017-07-05T23:42:07.932Z,18.60
2017-07-05T23:44:36.328Z,18.70
2017-07-05T23:47:04.654Z,18.70
2017-07-05T23:49:32.951Z,18.70
2017-07-05T23:52:01.404Z,18.70
2017-07-05T23:54:29.877Z,18.70
2017-07-05T23:56:58.970Z,18.70
2017-07-05T23:59:28.168Z,18.70
